sensor_id;sensor_type;location;lat;lon;timestamp;P1;durP1;ratioP1;P2;durP2;ratioP2
21743;SDS011;11034;48.556;9.342;2023-03-31T04:47:34;11.10;;;4.47;;
21743;SDS011;11034;48.556;9.342;2023-03-31T04:50:02;9.70;;;4.20;;
21743;SDS011;11034;48.556;9.342;2023-03-31T04:52:31;12.25;;;4.70;;
21743;SDS011;11034;48.556;9.342;2023-03-31T04:54:59;10.80;;;4.82;;
21743;SDS011;11034;48.556;9.342;2023-03-31T04:57:27;8.15;;;4.32;;
21743;SDS011;11034;48.556;9.342;2023-03-31T04:59:55;22.77;;;5.28;;
21743;SDS011;11034;48.556;9.342;2023-03-31T05:02:23;10.27;;;3.90;;
21743;SDS011;11034;48.556;9.342;2023-03-31T05:04:53;10.13;;;3.83;;
21743;SDS011;11034;48.556;9.342;2023-03-31T05:07:21;11.57;;;4.65;;
21743;SDS011;11034;48.556;9.342;2023-03-31T05:09:49;8.23;;;4.43;;
21743;SDS011;11034;48.556;9.342;2023-03-31T05:12:17;10.40;;;4.00;;
21743;SDS011;11034;48.556;9.342;2023-03-31T05:14:45;11.52;;;4.10;;
21743;SDS011;11034;48.556;9.342;2023-03-31T05:17:13;11.18;;;4.20;;
21743;SDS011;11034;48.556;9.342;2023-03-31T05:19:43;18.75;;;4.70;;
21743;SDS011;11034;48.556;9.342;2023-03-31T05:22:12;11.68;;;4.82;;
21743;SDS011;11034;48.556;9.342;2023-03-31T05:24:45;13.98;;;5.57;;
21743;SDS011;11034;48.556;9.342;2023-03-31T05:27:14;12.07;;;4.80;;
21743;SDS011;11034;48.556;9.342;2023-03-31T05:29:42;11.57;;;5.40;;
21743;SDS011;11034;48.556;9.342;2023-03-31T05:32:11;12.23;;;4.32;;
21743;SDS011;11034;48.556;9.342;2023-03-31T05:34:38;11.25;;;4.78;;
21743;SDS011;11034;48.556;9.342;2023-03-31T05:37:08;13.02;;;5.25;;
21743;SDS011;11034;48.556;9.342;2023-03-31T05:39:37;13.52;;;5.38;;
21743;SDS011;11034;48.556;9.342;2023-03-31T05:42:05;11.60;;;5.43;;
21743;SDS011;11034;48.556;9.342;2023-03-31T05:44:34;14.52;;;5.60;;
21743;SDS011;11034;48.556;9.342;2023-03-31T05:47:02;14.15;;;6.00;;
21743;SDS011;11034;48.556;9.342;2023-03-31T05:49:30;12.90;;;5.93;;
21743;SDS011;11034;48.556;9.342;2023-03-31T05:51:58;14.82;;;5.78;;
21743;SDS011;11034;48.556;9.342;2023-03-31T05:54:26;12.45;;;5.65;;
21743;SDS011;11034;48.556;9.342;2023-03-31T05:56:55;14.95;;;6.75;;
21743;SDS011;11034;48.556;9.342;2023-03-31T05:59:23;13.40;;;6.25;;
21743;SDS011;11034;48.556;9.342;2023-03-31T06:01:52;14.60;;;6.38;;
21743;SDS011;11034;48.556;9.342;2023-03-31T06:04:20;13.35;;;5.88;;
21743;SDS011;11034;48.556;9.342;2023-03-31T06:06:49;13.63;;;6.43;;
21743;SDS011;11034;48.556;9.342;2023-03-31T06:09:19;14.75;;;5.95;;
21743;SDS011;11034;48.556;9.342;2023-03-31T06:11:47;13.63;;;6.10;;
21743;SDS011;11034;48.556;9.342;2023-03-31T06:14:17;11.75;;;6.30;;
21743;SDS011;11034;48.556;9.342;2023-03-31T06:16:45;15.63;;;6.68;;
21743;SDS011;11034;48.556;9.342;2023-03-31T06:19:14;12.93;;;7.13;;
21743;SDS011;11034;48.556;9.342;2023-03-31T06:21:42;14.02;;;5.97;;
21743;SDS011;11034;48.556;9.342;2023-03-31T06:24:10;12.32;;;5.95;;
21743;SDS011;11034;48.556;9.342;2023-03-31T06:26:38;16.33;;;6.93;;
21743;SDS011;11034;48.556;9.342;2023-03-31T06:29:07;12.45;;;6.38;;
21743;SDS011;11034;48.556;9.342;2023-03-31T06:31:36;11.10;;;6.38;;
21743;SDS011;11034;48.556;9.342;2023-03-31T06:34:04;13.48;;;6.40;;
21743;SDS011;11034;48.556;9.342;2023-03-31T06:36:33;14.82;;;6.25;;
21743;SDS011;11034;48.556;9.342;2023-03-31T06:39:01;12.55;;;5.88;;
21743;SDS011;11034;48.556;9.342;2023-03-31T06:41:29;12.40;;;6.05;;
21743;SDS011;11034;48.556;9.342;2023-03-31T06:43:57;12.88;;;6.60;;
21743;SDS011;11034;48.556;9.342;2023-03-31T14:02:36;8.68;;;1.48;;
21743;SDS011;11034;48.556;9.342;2023-03-31T14:05:24;4.93;;;1.25;;
21743;SDS011;11034;48.556;9.342;2023-03-31T14:07:57;2.88;;;1.13;;
21743;SDS011;11034;48.556;9.342;2023-03-31T14:10:29;2.08;;;0.70;;
21743;SDS011;11034;48.556;9.342;2023-03-31T14:13:06;1.40;;;0.70;;
21743;SDS011;11034;48.556;9.342;2023-03-31T14:15:36;3.55;;;1.17;;
21743;SDS011;11034;48.556;9.342;2023-03-31T14:18:11;2.03;;;1.00;;
21743;SDS011;11034;48.556;9.342;2023-03-31T14:20:57;1.63;;;1.10;;
21743;SDS011;11034;48.556;9.342;2023-03-31T14:23:39;1.67;;;0.70;;
21743;SDS011;11034;48.556;9.342;2023-03-31T14:26:18;1.13;;;0.70;;
21743;SDS011;11034;48.556;9.342;2023-03-31T14:28:58;2.30;;;1.00;;
21743;SDS011;11034;48.556;9.342;2023-03-31T14:31:36;3.55;;;0.80;;
21743;SDS011;11034;48.556;9.342;2023-03-31T14:34:18;4.07;;;1.05;;
21743;SDS011;11034;48.556;9.342;2023-03-31T14:37:08;5.07;;;1.10;;
21743;SDS011;11034;48.556;9.342;2023-03-31T14:39:39;3.05;;;1.20;;
21743;SDS011;11034;48.556;9.342;2023-03-31T14:42:10;4.10;;;1.25;;
21743;SDS011;11034;48.556;9.342;2023-03-31T14:44:40;4.70;;;1.70;;
21743;SDS011;11034;48.556;9.342;2023-03-31T14:47:13;2.33;;;0.90;;
21743;SDS011;11034;48.556;9.342;2023-03-31T14:49:45;4.32;;;1.00;;
21743;SDS011;11034;48.556;9.342;2023-03-31T14:52:14;2.10;;;0.63;;
21743;SDS011;11034;48.556;9.342;2023-03-31T14:54:44;2.65;;;0.90;;
21743;SDS011;11034;48.556;9.342;2023-03-31T14:57:15;3.65;;;0.80;;
21743;SDS011;11034;48.556;9.342;2023-03-31T14:59:46;2.70;;;0.90;;
21743;SDS011;11034;48.556;9.342;2023-03-31T15:02:17;5.20;;;1.70;;
21743;SDS011;11034;48.556;9.342;2023-03-31T15:04:51;4.15;;;1.20;;
21743;SDS011;11034;48.556;9.342;2023-03-31T15:07:21;2.00;;;0.55;;
21743;SDS011;11034;48.556;9.342;2023-03-31T15:09:50;1.77;;;0.80;;
21743;SDS011;11034;48.556;9.342;2023-03-31T15:12:19;1.17;;;0.73;;
21743;SDS011;11034;48.556;9.342;2023-03-31T15:14:49;2.17;;;0.70;;
21743;SDS011;11034;48.556;9.342;2023-03-31T15:17:19;2.20;;;0.82;;
21743;SDS011;11034;48.556;9.342;2023-03-31T15:19:54;2.55;;;0.90;;
21743;SDS011;11034;48.556;9.342;2023-03-31T15:22:24;3.88;;;0.70;;
21743;SDS011;11034;48.556;9.342;2023-03-31T15:24:53;2.45;;;0.93;;
21743;SDS011;11034;48.556;9.342;2023-03-31T15:27:26;2.08;;;0.77;;
21743;SDS011;11034;48.556;9.342;2023-03-31T15:30:03;1.92;;;0.70;;
21743;SDS011;11034;48.556;9.342;2023-03-31T15:32:34;4.28;;;1.80;;
21743;SDS011;11034;48.556;9.342;2023-03-31T15:35:05;4.10;;;2.00;;
21743;SDS011;11034;48.556;9.342;2023-03-31T15:37:48;3.30;;;1.58;;
21743;SDS011;11034;48.556;9.342;2023-03-31T15:40:18;6.35;;;1.90;;
21743;SDS011;11034;48.556;9.342;2023-03-31T15:42:49;3.63;;;1.05;;
21743;SDS011;11034;48.556;9.342;2023-03-31T15:45:48;3.30;;;1.20;;
21743;SDS011;11034;48.556;9.342;2023-03-31T15:48:20;3.60;;;1.25;;
21743;SDS011;11034;48.556;9.342;2023-03-31T15:50:51;2.90;;;0.80;;
21743;SDS011;11034;48.556;9.342;2023-03-31T15:53:24;6.78;;;1.50;;
21743;SDS011;11034;48.556;9.342;2023-03-31T15:55:55;6.15;;;2.25;;
21743;SDS011;11034;48.556;9.342;2023-03-31T16:01:26;3.47;;;1.15;;
21743;SDS011;11034;48.556;9.342;2023-03-31T16:03:58;3.42;;;1.45;;
21743;SDS011;11034;48.556;9.342;2023-03-31T16:06:37;4.93;;;1.05;;
21743;SDS011;11034;48.556;9.342;2023-03-31T16:09:10;4.78;;;2.28;;
21743;SDS011;11034;48.556;9.342;2023-03-31T16:11:42;2.55;;;1.50;;
21743;SDS011;11034;48.556;9.342;2023-03-31T16:14:14;2.67;;;0.70;;
21743;SDS011;11034;48.556;9.342;2023-03-31T16:16:47;1.67;;;0.80;;
21743;SDS011;11034;48.556;9.342;2023-03-31T16:19:17;3.17;;;0.82;;
21743;SDS011;11034;48.556;9.342;2023-03-31T16:21:50;3.08;;;1.88;;
21743;SDS011;11034;48.556;9.342;2023-03-31T16:24:21;3.50;;;1.38;;
21743;SDS011;11034;48.556;9.342;2023-03-31T16:26:57;1.30;;;0.77;;
21743;SDS011;11034;48.556;9.342;2023-03-31T16:29:31;3.15;;;0.90;;
21743;SDS011;11034;48.556;9.342;2023-03-31T16:32:07;2.85;;;1.23;;
21743;SDS011;11034;48.556;9.342;2023-03-31T16:34:50;3.35;;;0.80;;
21743;SDS011;11034;48.556;9.342;2023-03-31T16:37:21;2.95;;;1.20;;
21743;SDS011;11034;48.556;9.342;2023-03-31T16:39:49;2.85;;;0.85;;
21743;SDS011;11034;48.556;9.342;2023-03-31T16:42:17;3.72;;;1.20;;
21743;SDS011;11034;48.556;9.342;2023-03-31T16:44:46;2.10;;;1.00;;
21743;SDS011;11034;48.556;9.342;2023-03-31T16:47:34;4.00;;;1.30;;
21743;SDS011;11034;48.556;9.342;2023-03-31T16:50:02;3.45;;;1.33;;
21743;SDS011;11034;48.556;9.342;2023-03-31T16:52:34;4.28;;;1.10;;
21743;SDS011;11034;48.556;9.342;2023-03-31T16:55:02;4.55;;;2.00;;
21743;SDS011;11034;48.556;9.342;2023-03-31T16:57:31;3.05;;;1.80;;
21743;SDS011;11034;48.556;9.342;2023-03-31T17:00:00;4.85;;;1.50;;
21743;SDS011;11034;48.556;9.342;2023-03-31T17:02:31;7.97;;;1.27;;
21743;SDS011;11034;48.556;9.342;2023-03-31T17:04:59;1.92;;;0.80;;
21743;SDS011;11034;48.556;9.342;2023-03-31T17:07:40;5.00;;;2.88;;
21743;SDS011;11034;48.556;9.342;2023-03-31T17:10:08;4.93;;;1.50;;
21743;SDS011;11034;48.556;9.342;2023-03-31T17:12:39;2.53;;;1.60;;
21743;SDS011;11034;48.556;9.342;2023-03-31T17:15:08;13.07;;;6.22;;
21743;SDS011;11034;48.556;9.342;2023-03-31T17:17:37;11.18;;;5.50;;
21743;SDS011;11034;48.556;9.342;2023-03-31T17:20:06;10.07;;;4.80;;
21743;SDS011;11034;48.556;9.342;2023-03-31T17:22:35;8.27;;;4.20;;
21743;SDS011;11034;48.556;9.342;2023-03-31T17:25:05;5.75;;;2.50;;
21743;SDS011;11034;48.556;9.342;2023-03-31T17:27:34;3.45;;;1.40;;
21743;SDS011;11034;48.556;9.342;2023-03-31T17:30:03;3.15;;;1.13;;
21743;SDS011;11034;48.556;9.342;2023-03-31T17:32:32;4.60;;;1.92;;
21743;SDS011;11034;48.556;9.342;2023-03-31T17:35:01;6.03;;;1.00;;
21743;SDS011;11034;48.556;9.342;2023-03-31T17:37:29;15.07;;;6.32;;
21743;SDS011;11034;48.556;9.342;2023-03-31T17:39:57;3.67;;;1.30;;
21743;SDS011;11034;48.556;9.342;2023-03-31T17:42:26;6.25;;;1.75;;
21743;SDS011;11034;48.556;9.342;2023-03-31T17:44:54;2.28;;;0.80;;
21743;SDS011;11034;48.556;9.342;2023-03-31T17:47:24;6.63;;;3.10;;
21743;SDS011;11034;48.556;9.342;2023-03-31T17:49:53;7.00;;;2.95;;
21743;SDS011;11034;48.556;9.342;2023-03-31T17:52:21;5.22;;;1.40;;
21743;SDS011;11034;48.556;9.342;2023-03-31T17:54:49;11.55;;;5.63;;
21743;SDS011;11034;48.556;9.342;2023-03-31T17:57:18;4.43;;;1.20;;
21743;SDS011;11034;48.556;9.342;2023-03-31T17:59:47;4.35;;;1.63;;
21743;SDS011;11034;48.556;9.342;2023-03-31T18:02:15;4.00;;;1.50;;
21743;SDS011;11034;48.556;9.342;2023-03-31T18:04:44;7.78;;;1.98;;
21743;SDS011;11034;48.556;9.342;2023-03-31T18:07:12;10.68;;;3.28;;
21743;SDS011;11034;48.556;9.342;2023-03-31T18:09:40;10.75;;;3.35;;
21743;SDS011;11034;48.556;9.342;2023-03-31T18:12:08;6.32;;;1.80;;
21743;SDS011;11034;48.556;9.342;2023-03-31T18:14:36;8.23;;;2.28;;
21743;SDS011;11034;48.556;9.342;2023-03-31T18:17:06;4.68;;;2.75;;
21743;SDS011;11034;48.556;9.342;2023-03-31T18:19:36;3.55;;;1.02;;
21743;SDS011;11034;48.556;9.342;2023-03-31T18:22:05;3.55;;;1.20;;
21743;SDS011;11034;48.556;9.342;2023-03-31T18:24:33;4.53;;;1.20;;
21743;SDS011;11034;48.556;9.342;2023-03-31T18:27:04;2.72;;;1.20;;
21743;SDS011;11034;48.556;9.342;2023-03-31T18:29:32;3.70;;;1.00;;
21743;SDS011;11034;48.556;9.342;2023-03-31T18:32:00;6.07;;;1.98;;
21743;SDS011;11034;48.556;9.342;2023-03-31T18:34:29;2.70;;;1.05;;
21743;SDS011;11034;48.556;9.342;2023-03-31T18:36:58;8.90;;;1.08;;
21743;SDS011;11034;48.556;9.342;2023-03-31T18:39:26;3.58;;;1.05;;
21743;SDS011;11034;48.556;9.342;2023-03-31T18:41:55;5.80;;;1.17;;
21743;SDS011;11034;48.556;9.342;2023-03-31T18:44:23;2.40;;;1.05;;
21743;SDS011;11034;48.556;9.342;2023-03-31T18:46:51;2.75;;;1.40;;
21743;SDS011;11034;48.556;9.342;2023-03-31T18:49:19;3.83;;;1.50;;
21743;SDS011;11034;48.556;9.342;2023-03-31T18:51:49;4.35;;;2.13;;
21743;SDS011;11034;48.556;9.342;2023-03-31T18:54:17;4.97;;;1.40;;
21743;SDS011;11034;48.556;9.342;2023-03-31T18:56:46;5.82;;;1.65;;
21743;SDS011;11034;48.556;9.342;2023-03-31T18:59:14;7.35;;;1.35;;
21743;SDS011;11034;48.556;9.342;2023-03-31T19:01:42;6.65;;;3.08;;
21743;SDS011;11034;48.556;9.342;2023-03-31T19:04:10;9.68;;;3.47;;
21743;SDS011;11034;48.556;9.342;2023-03-31T19:06:38;11.45;;;3.13;;
21743;SDS011;11034;48.556;9.342;2023-03-31T19:09:07;11.68;;;4.32;;
21743;SDS011;11034;48.556;9.342;2023-03-31T19:11:36;14.10;;;5.57;;
21743;SDS011;11034;48.556;9.342;2023-03-31T19:14:04;9.27;;;3.15;;
21743;SDS011;11034;48.556;9.342;2023-03-31T19:16:32;6.65;;;1.42;;
21743;SDS011;11034;48.556;9.342;2023-03-31T19:19:06;6.00;;;1.73;;
21743;SDS011;11034;48.556;9.342;2023-03-31T19:21:35;10.35;;;3.80;;
21743;SDS011;11034;48.556;9.342;2023-03-31T19:24:03;7.70;;;2.17;;
21743;SDS011;11034;48.556;9.342;2023-03-31T19:26:33;5.88;;;1.42;;
21743;SDS011;11034;48.556;9.342;2023-03-31T19:29:02;7.85;;;1.65;;
21743;SDS011;11034;48.556;9.342;2023-03-31T19:31:31;4.30;;;2.03;;
21743;SDS011;11034;48.556;9.342;2023-03-31T19:34:03;4.45;;;1.30;;
21743;SDS011;11034;48.556;9.342;2023-03-31T19:36:32;4.32;;;1.33;;
21743;SDS011;11034;48.556;9.342;2023-03-31T19:39:00;7.20;;;1.42;;
21743;SDS011;11034;48.556;9.342;2023-03-31T19:41:29;4.28;;;1.30;;
21743;SDS011;11034;48.556;9.342;2023-03-31T19:43:59;4.78;;;1.17;;
21743;SDS011;11034;48.556;9.342;2023-03-31T19:46:27;5.28;;;1.35;;
21743;SDS011;11034;48.556;9.342;2023-03-31T19:48:56;3.88;;;1.02;;
21743;SDS011;11034;48.556;9.342;2023-03-31T19:51:24;9.35;;;1.70;;
21743;SDS011;11034;48.556;9.342;2023-03-31T19:53:52;5.82;;;1.80;;
21743;SDS011;11034;48.556;9.342;2023-03-31T19:56:21;5.43;;;1.45;;
21743;SDS011;11034;48.556;9.342;2023-03-31T19:58:50;4.20;;;1.20;;
